Edwards Creek Valley, Nevada Weather observations

Data are for observation ending at time listed.
 Day   Time    Ave.   Ave.  Ave.  Vector   Max.   Stn.    Total    Solar   Ave.  
  of    of     Air    Rel.  Wind   Wind    Wind   Baro.  Precip.   Rad.    Soil  
Year   Day     Temp.  Hum.  Speed  Dir.    Gust   Pres.                    Temp. 
2014   (PST)    F      %     mph   deg.    mph     mb.     in.     W/m2     F   
------------------------------------------------------------------------------
 353    0:00   28.4    87    1.9    59      4.3    846     0.00       0     32.2
 353    0:10   28.9    85    3.1    51      4.2    846     0.00       0     32.2
 353    0:20   28.8    83    2.0    41      3.7    846     0.00       0     32.1
 353    0:30   28.0    85    1.6   113      2.7    846     0.00       0     32.1
 353    0:40   27.3    87    1.5   194      2.6    845     0.00       0     32.1
 353    0:50   27.0    87    0.7   330      2.0    845     0.00       0     32.1
 353    1:00   26.2    88    1.5   281      2.9    845     0.00       0     32.1
 353    1:10   26.3    89    1.7   261      4.2    845     0.00       0     32.0
 353    1:20   26.5    90    2.3   250      3.2    845     0.00       0     32.0
 353    1:30   26.3    90    2.5   173      4.5    845     0.00       0     32.0
 353    1:40   26.3    91    3.2   137      4.7    845     0.00       0     32.0
 353    1:50   27.3    91    4.1   122      7.1    846     0.00       0     32.0
 353    2:00   29.0    87    2.4   113      4.0    846     0.00       0     31.9
 353    2:10   28.7    85    1.8   288      3.6    846     0.00       0     31.9
 353    2:20   27.7    87    3.5   274      4.7    846     0.00       0     31.9
 353    2:30   26.8    88    1.8   253      3.1    846     0.00       0     31.9
 353    2:40   26.9    88    2.0   255      2.8    845     0.00       0     31.9
 353    2:50   25.8    88    2.6   193      4.5    845     0.00       0     31.9
 353    3:00   25.2    90    2.6   184      4.8    846     0.00       0     31.8
 353    3:10   25.1    90    2.5   158      2.9    846     0.00       0     31.8
 353    3:20   25.0    90    1.4   190      2.0    846     0.00       0     31.8
 353    3:30   25.3    90    3.0   218      4.4    846     0.00       0     31.8
 353    3:40   25.6    90    2.5   182      4.8    846     0.00       0     31.7
 353    3:50   25.2    90    3.4   147      4.6    846     0.00       0     31.7
 353    4:00   25.6    91    2.7   150      4.8    846     0.00       0     31.7
 353    4:10   26.4    90    2.5   169      5.3    846     0.00       0     31.7
 353    4:20   26.3    89    1.7   156      3.4    845     0.00       0     31.7
 353    4:30   26.3    89    1.3   326      3.8    845     0.00       0     31.7
 353    4:40   26.2    89    3.9   299      4.7    845     0.00       0     31.6
 353    4:50   26.4    89    1.6   292      3.7    845     0.00       0     31.6
 353    5:00   25.9    89    2.5   302      4.1    845     0.00       0     31.6
 353    5:10   25.3    89    2.0   127      5.6    846     0.00       0     31.6
 353    5:20   25.2    91    3.0    89      5.0    846     0.00       0     31.6
 353    5:30   25.5    91    3.0    81      5.6    846     0.00       0     31.6
 353    5:40   25.6    91    2.0    44      5.8    846     0.00       0     31.5
 353    5:50   24.9    90    1.4   295      5.4    845     0.00       0     31.5
 353    6:00   24.2    90    2.8   259      4.8    845     0.00       0     31.5
 353    6:10   23.0    91    2.5   232      3.7    845     0.00       0     31.5
 353    6:20   22.3    91    1.8   196      3.9    845     0.00       0     31.4
 353    6:30   22.5    92    3.4   167      5.7    845     0.00       0     31.4
 353    6:40   22.9    92    1.0   117      3.6    845     0.00       0     31.3
 353    6:50   22.2    91    3.6   226      5.8    845     0.00       0     31.3
 353    7:00   22.5    91    2.6   233      4.2    845     0.00       1     31.3
 353    7:10   22.1    91    2.0   257      3.5    845     0.00       3     31.2
 353    7:20   21.4    91    2.9   178      4.5    845     0.00       7     31.2
 353    7:30   21.9    92    3.5   172      5.6    846     0.00      12     31.1
 353    7:40   22.5    92    4.0   153      5.6    846     0.00      16     31.1
 353    7:50   23.8    92    3.3   148      4.3    845     0.00      57     31.1
 353    8:00   26.6    90    2.8   160      4.5    846     0.00      95     31.0
 353    8:10   28.6    87    1.8   232      4.1    846     0.00     141     31.0
 353    8:20   28.4    85    2.0   310      3.7    846     0.00     195     31.0
 353    8:30   29.6    85    1.9   356      3.6    846     0.00     192     31.0
 353    8:40   30.5    84    2.9    34      4.9    846     0.00     189     31.1
 353    8:50   31.1    82    2.5    12      3.8    845     0.00     160     31.2
 353    9:00   31.7    81    2.1    20      3.4    846     0.00     201     31.2
 353    9:10   32.7    78    1.5    47      3.3    846     0.00     276     31.3
 353    9:20   33.7    73    3.2    83      5.4    846     0.00     283     31.3
 353    9:30   34.0    73    2.2   103      3.5    846     0.00     174     31.4
 353    9:40   34.3    73    1.9    80      3.7    846     0.00     231     31.4
 353    9:50   35.5    71    1.0    31      2.6    846     0.00     374     31.5
 353   10:00   37.9    67    0.7   349      2.8    846     0.00     372     31.5
 353   10:10   37.4    66    1.7   312      3.1    846     0.00     301     31.5
 353   10:20   36.5    68    2.7   307      3.8    846     0.00     290     31.6
 353   10:30   36.5    67    2.6   272      3.9    846     0.00     236     31.6
 353   10:40   36.8    67    1.7   293      3.9    846     0.00     174     31.6
 353   10:50   37.3    66    0.4   215      1.8    846     0.00     146     31.7
 353   11:00   37.7    65    0.2   167      1.4    846     0.00     157     31.7
 353   11:10   37.8    64    1.7    70      4.9    846     0.00     163     31.7
 353   11:20   37.7    64    2.8    50      5.6    846     0.00     154     31.7
 353   11:30   37.7    64    3.3     0      4.8    846     0.00     150     31.7
 353   11:40   37.8    65    3.5   349      5.6    846     0.00     145     31.8
 353   11:50   38.2    65    2.5     4      4.5    845     0.00     121     31.8
 353   12:00   38.4    63    2.2    24      4.2    845     0.00      91     31.8
 353   12:10   38.6    63    1.6    47      4.0    845     0.00      99     31.8
 353   12:20   38.7    63    2.3    67      3.6    845     0.00      95     31.9

Return to Carson Sink graphs page.


Western Regional Climate Center,wrcc@dri.edu